Time;durP1;ratioP1;P1;durP2;ratioP2;P2;SDS_P1;SDS_P2;PMS_P1;PMS_P2;Temp;Humidity;BMP_temperature;BMP_pressure;BME280_temperature;BME280_humidity;BME280_pressure;Samples;Min_cycle;Max_cycle;Signal;HPM_P1;HPM_P2
2022/01/31 00:02:17;;;;;;;26.27;9.60;;;;;;;;;;5036950;28;93725;-76
2022/01/31 00:04:43;;;;;;;26.95;9.35;;;;;;;;;;5040497;27;94175;-76
2022/01/31 00:07:10;;;;;;;20.10;8.95;;;;;;;;;;5025894;28;92395;-77
2022/01/31 00:09:38;;;;;;;31.30;10.10;;;;;;;;;;5044447;28;93494;-77
2022/01/31 00:12:08;;;;;;;23.75;9.38;;;;;;;;;;5042816;28;93378;-76
2022/01/31 00:14:40;;;;;;;27.38;9.65;;;;;;;;;;5043616;28;92152;-76
2022/01/31 00:17:06;;;;;;;;;;;;;;;;;;5042939;28;95190;-76
2022/01/31 00:19:34;;;;;;;19.67;8.95;;;;;;;;;;5045459;28;121941;-77
2022/01/31 00:22:00;;;;;;;26.20;9.27;;;;;;;;;;5043665;28;94509;-76
2022/01/31 00:24:27;;;;;;;26.33;8.93;;;;;;;;;;5043514;28;93704;-75
2022/01/31 00:26:53;;;;;;;23.92;9.18;;;;;;;;;;5043504;28;92559;-76
2022/01/31 00:29:19;;;;;;;28.50;8.52;;;;;;;;;;5026174;28;92814;-75
2022/01/31 00:31:46;;;;;;;29.60;8.85;;;;;;;;;;5043316;28;93455;-75
2022/01/31 00:34:12;;;;;;;29.55;9.00;;;;;;;;;;5043613;28;91633;-76
2022/01/31 00:36:39;;;;;;;25.48;8.90;;;;;;;;;;5043676;28;92617;-75
2022/01/31 00:39:05;;;;;;;26.60;9.18;;;;;;;;;;5046571;28;93712;-76
2022/01/31 00:41:32;;;;;;;26.58;8.30;;;;;;;;;;5023759;28;96013;-76
2022/01/31 00:44:47;;;;;;;26.85;7.93;;;;;;;;;;5043271;28;93096;-76
2022/01/31 00:46:53;;;;;;;28.58;8.23;;;;;;;;;;5032519;28;92353;-76
2022/01/31 00:51:59;;;;;;;20.20;8.23;;;;;;;;;;5041851;28;122174;-76
2022/01/31 00:54:27;;;;;;;39.47;9.65;;;;;;;;;;5043320;28;92264;-76
2022/01/31 00:56:53;;;;;;;31.20;10.32;;;;;;;;;;5043375;28;93487;-76
2022/01/31 00:59:19;;;;;;;33.67;9.18;;;;;;;;;;5024303;28;93814;-76
2022/01/31 01:01:46;;;;;;;29.63;10.18;;;;;;;;;;5045890;28;92318;-76
2022/01/31 01:04:13;;;;;;;33.75;9.75;;;;;;;;;;5024156;28;95876;-76
2022/01/31 01:06:40;;;;;;;23.77;9.10;;;;;;;;;;5006854;28;94894;-76
2022/01/31 01:09:07;;;;;;;27.58;9.65;;;;;;;;;;5043043;28;95356;-76
2022/01/31 01:11:34;;;;;;;23.95;10.15;;;;;;;;;;5024792;28;94625;-77
2022/01/31 01:14:00;;;;;;;35.95;10.15;;;;;;;;;;5023509;28;93546;-76
2022/01/31 01:16:27;;;;;;;23.33;10.07;;;;;;;;;;5039069;28;92438;-76
2022/01/31 01:18:59;;;;;;;28.90;9.48;;;;;;;;;;5038660;28;93011;-76
2022/01/31 01:21:25;;;;;;;19.20;10.15;;;;;;;;;;5021437;28;92891;-76
2022/01/31 01:23:52;;;;;;;23.52;9.52;;;;;;;;;;5042427;28;93360;-77
2022/01/31 01:26:19;;;;;;;14.65;8.05;;;;;;;;;;5039375;28;92214;-76
2022/01/31 01:28:46;;;;;;;23.90;11.10;;;;;;;;;;5021379;28;95990;-77
2022/01/31 01:31:14;;;;;;;22.65;10.77;;;;;;;;;;5018816;28;97402;-78
2022/01/31 01:33:42;;;;;;;19.15;9.93;;;;;;;;;;5020478;28;92787;-77
2022/01/31 01:36:09;;;;;;;22.30;10.60;;;;;;;;;;5021390;28;96171;-76
2022/01/31 01:38:36;;;;;;;26.23;10.48;;;;;;;;;;5020352;28;95502;-76
2022/01/31 01:41:04;;;;;;;26.27;11.18;;;;;;;;;;5019955;28;93051;-77
2022/01/31 01:43:31;;;;;;;21.13;9.73;;;;;;;;;;5038466;28;93495;-76
2022/01/31 01:45:58;;;;;;;21.27;9.13;;;;;;;;;;5024369;28;96026;-77
2022/01/31 01:48:28;;;;;;;17.73;9.77;;;;;;;;;;5021535;28;94273;-77
2022/01/31 01:50:57;;;;;;;21.27;9.73;;;;;;;;;;5020945;28;96077;-76
2022/01/31 01:53:24;;;;;;;19.63;10.30;;;;;;;;;;5020946;28;93142;-78
2022/01/31 01:55:52;;;;;;;22.67;10.23;;;;;;;;;;5018476;28;95558;-77
2022/01/31 01:58:23;;;;;;;20.02;8.77;;;;;;;;;;5020200;28;95223;-78
2022/01/31 02:01:02;;;;;;;22.00;10.40;;;;;;;;;;5021142;28;92895;-78
2022/01/31 02:03:51;;;;;;;17.38;8.23;;;;;;;;;;5019963;28;95254;-78
2022/01/31 02:06:22;;;;;;;18.35;8.07;;;;;;;;;;5020025;28;95969;-77
2022/01/31 02:08:48;;;;;;;15.20;7.85;;;;;;;;;;5024173;28;92488;-77
2022/01/31 02:11:20;;;;;;;20.45;9.95;;;;;;;;;;5021052;28;94972;-78
2022/01/31 02:13:52;;;;;;;;;;;;;;;;;;5021727;28;91709;-77
2022/01/31 02:16:30;;;;;;;15.73;7.88;;;;;;;;;;5022132;28;92286;-78
2022/01/31 02:19:02;;;;;;;11.05;6.72;;;;;;;;;;5020539;28;95454;-77
2022/01/31 02:21:53;;;;;;;17.50;9.10;;;;;;;;;;5007538;28;94819;-77
2022/01/31 02:24:38;;;;;;;15.52;7.90;;;;;;;;;;5038034;28;94770;-77
2022/01/31 02:27:29;;;;;;;18.33;8.50;;;;;;;;;;5020437;28;96078;-76
2022/01/31 02:29:56;;;;;;;16.08;9.05;;;;;;;;;;5020749;28;92325;-77
2022/01/31 02:32:24;;;;;;;18.63;8.55;;;;;;;;;;5024080;28;95284;-76
2022/01/31 02:34:56;;;;;;;;;;;;;;;;;;5020788;28;92295;-79
2022/01/31 02:37:22;;;;;;;17.48;8.43;;;;;;;;;;5019800;28;114444;-76
2022/01/31 02:39:52;;;;;;;19.10;8.80;;;;;;;;;;5020750;28;94521;-77
2022/01/31 02:42:19;;;;;;;16.63;8.02;;;;;;;;;;5020353;28;92453;-76
2022/01/31 02:44:47;;;;;;;18.88;8.50;;;;;;;;;;5020421;28;95296;-77
2022/01/31 02:47:24;;;;;;;23.00;8.82;;;;;;;;;;5018589;28;97691;-77
2022/01/31 02:49:57;;;;;;;21.33;7.80;;;;;;;;;;5020070;28;92607;-77
2022/01/31 02:52:26;;;;;;;22.05;4.53;;;;;;;;;;5023124;28;95745;-76
2022/01/31 02:54:52;;;;;;;27.73;7.50;;;;;;;;;;5038086;28;92204;-77
2022/01/31 02:57:20;;;;;;;26.52;6.75;;;;;;;;;;5020055;28;94546;-77
2022/01/31 02:59:46;;;;;;;24.73;6.55;;;;;;;;;;5037840;28;93615;-77
2022/01/31 03:02:14;;;;;;;28.27;5.55;;;;;;;;;;5019952;28;92594;-77
2022/01/31 03:04:40;;;;;;;25.58;6.20;;;;;;;;;;5020424;28;95258;-77
2022/01/31 03:07:10;;;;;;;28.80;6.05;;;;;;;;;;5019761;28;96027;-76
2022/01/31 03:09:37;;;;;;;28.38;5.70;;;;;;;;;;5019857;28;92349;-76
2022/01/31 03:12:09;;;;;;;31.80;6.90;;;;;;;;;;5018378;28;95257;-77
2022/01/31 03:14:44;;;;;;;33.35;5.20;;;;;;;;;;5022579;28;95544;-76
2022/01/31 03:17:30;;;;;;;25.33;5.07;;;;;;;;;;5037355;28;94170;-76
2022/01/31 03:19:57;;;;;;;33.17;5.85;;;;;;;;;;5019769;28;95185;-76
2022/01/31 03:22:25;;;;;;;22.83;4.28;;;;;;;;;;5019657;28;92401;-76
2022/01/31 03:24:51;;;;;;;26.40;5.45;;;;;;;;;;5019600;28;95003;-76
2022/01/31 03:27:18;;;;;;;19.88;4.20;;;;;;;;;;5019268;28;95212;-77
2022/01/31 03:29:44;;;;;;;19.42;3.97;;;;;;;;;;5019733;28;92873;-76
2022/01/31 03:32:10;;;;;;;21.83;3.75;;;;;;;;;;5019457;28;95192;-77
2022/01/31 03:34:37;;;;;;;26.83;4.70;;;;;;;;;;5019354;28;95788;-77
2022/01/31 03:37:03;;;;;;;24.02;4.30;;;;;;;;;;5039045;28;94678;-76
2022/01/31 03:39:30;;;;;;;20.08;3.47;;;;;;;;;;5018784;28;96149;-76
2022/01/31 03:41:56;;;;;;;25.27;3.42;;;;;;;;;;5019054;28;92385;-76
2022/01/31 03:44:23;;;;;;;21.33;5.05;;;;;;;;;;5019523;28;95742;-74
2022/01/31 03:46:52;;;;;;;20.05;3.00;;;;;;;;;;5019149;28;96453;-74
2022/01/31 03:49:19;;;;;;;17.40;4.10;;;;;;;;;;5037391;28;92289;-76
2022/01/31 03:51:47;;;;;;;15.35;3.30;;;;;;;;;;5019118;28;95872;-74
2022/01/31 03:54:18;;;;;;;17.60;3.40;;;;;;;;;;5019540;28;95345;-75
2022/01/31 03:56:45;;;;;;;19.30;3.42;;;;;;;;;;5018685;28;92455;-76
2022/01/31 03:59:34;;;;;;;19.77;3.75;;;;;;;;;;5010697;28;92581;-75
2022/01/31 04:02:04;;;;;;;20.23;3.38;;;;;;;;;;5017514;28;94729;-76
2022/01/31 04:04:30;;;;;;;20.67;3.30;;;;;;;;;;5036317;28;95260;-77
2022/01/31 04:06:57;;;;;;;22.77;3.20;;;;;;;;;;5036631;28;93283;-77
2022/01/31 04:09:23;;;;;;;16.77;3.33;;;;;;;;;;5019266;28;92456;-76
2022/01/31 04:11:49;;;;;;;19.27;3.13;;;;;;;;;;5034766;28;93492;-74
2022/01/31 04:14:16;;;;;;;18.00;3.42;;;;;;;;;;5035017;28;93790;-76
2022/01/31 04:16:42;;;;;;;22.20;3.35;;;;;;;;;;5035583;28;92267;-76
2022/01/31 04:19:08;;;;;;;23.65;3.83;;;;;;;;;;5036446;28;93367;-75
2022/01/31 04:21:35;;;;;;;18.42;2.88;;;;;;;;;;5040142;28;92661;-76
2022/01/31 04:24:01;;;;;;;16.73;3.05;;;;;;;;;;5037236;28;93441;-76
2022/01/31 04:26:33;;;;;;;23.50;4.10;;;;;;;;;;5032680;28;95807;-77
2022/01/31 04:29:08;;;;;;;13.27;2.53;;;;;;;;;;5036864;28;92299;-76
2022/01/31 04:31:40;;;;;;;19.88;3.10;;;;;;;;;;5035667;28;93546;-75
2022/01/31 04:34:06;;;;;;;18.25;3.15;;;;;;;;;;5036045;28;93734;-75
2022/01/31 04:36:33;;;;;;;18.23;3.95;;;;;;;;;;5033813;28;92374;-75
2022/01/31 04:38:59;;;;;;;18.17;2.97;;;;;;;;;;5034305;28;92846;-75
2022/01/31 04:41:26;;;;;;;15.02;3.38;;;;;;;;;;5036793;28;93941;-76
2022/01/31 04:43:55;;;;;;;18.60;3.10;;;;;;;;;;5038554;28;91551;-75
2022/01/31 04:46:22;;;;;;;16.42;2.83;;;;;;;;;;5035777;28;93224;-75
2022/01/31 04:48:48;;;;;;;19.38;3.65;;;;;;;;;;5035963;28;92360;-76
2022/01/31 04:51:15;;;;;;;19.90;3.47;;;;;;;;;;5035655;27;94565;-75
2022/01/31 04:53:41;;;;;;;13.55;3.83;;;;;;;;;;5039607;28;93562;-75
2022/01/31 04:56:08;;;;;;;19.13;3.45;;;;;;;;;;5038253;28;92464;-76
2022/01/31 04:58:34;;;;;;;17.08;3.25;;;;;;;;;;5039926;28;93235;-75
2022/01/31 05:01:00;;;;;;;19.88;4.00;;;;;;;;;;5039126;28;93437;-76
2022/01/31 05:03:29;;;;;;;19.98;3.38;;;;;;;;;;5042778;28;92732;-75
2022/01/31 05:05:56;;;;;;;20.55;3.78;;;;;;;;;;5037194;28;93844;-75
2022/01/31 05:08:26;;;;;;;17.83;3.60;;;;;;;;;;5038123;28;91526;-76
2022/01/31 05:10:52;;;;;;;26.55;3.63;;;;;;;;;;5038357;28;92762;-76
2022/01/31 05:13:19;;;;;;;12.40;2.92;;;;;;;;;;5038300;28;93708;-75
2022/01/31 05:15:45;;;;;;;19.48;2.97;;;;;;;;;;5037504;28;94510;-76
2022/01/31 05:18:12;;;;;;;13.40;2.95;;;;;;;;;;5039504;28;95314;-75
2022/01/31 05:20:38;;;;;;;12.70;2.15;;;;;;;;;;5039556;28;92776;-75
2022/01/31 05:23:06;;;;;;;13.52;1.90;;;;;;;;;;5038180;28;92196;-74
2022/01/31 05:25:35;;;;;;;7.88;1.55;;;;;;;;;;5041005;28;93492;-75
2022/01/31 05:28:02;;;;;;;8.95;1.90;;;;;;;;;;5038698;28;92218;-76
2022/01/31 05:30:28;;;;;;;17.55;2.88;;;;;;;;;;5039058;28;93409;-76
2022/01/31 05:32:55;;;;;;;16.13;2.13;;;;;;;;;;5039498;28;93014;-76
2022/01/31 05:35:21;;;;;;;11.18;1.90;;;;;;;;;;5037080;28;92389;-75
2022/01/31 05:37:47;;;;;;;14.70;2.33;;;;;;;;;;5039146;28;94240;-76
2022/01/31 05:40:14;;;;;;;12.02;1.80;;;;;;;;;;5036392;28;96070;-75
2022/01/31 05:42:40;;;;;;;15.88;2.83;;;;;;;;;;5038610;28;92131;-76
2022/01/31 05:45:07;;;;;;;11.90;2.33;;;;;;;;;;5038964;28;93428;-77
2022/01/31 05:47:34;;;;;;;14.95;2.25;;;;;;;;;;5040030;28;92697;-76
2022/01/31 05:50:00;;;;;;;15.43;2.45;;;;;;;;;;5037122;28;93027;-75
2022/01/31 05:52:26;;;;;;;12.20;2.47;;;;;;;;;;5037383;28;93445;-76
2022/01/31 05:54:56;;;;;;;15.27;2.70;;;;;;;;;;5038776;28;92299;-74
2022/01/31 05:57:22;;;;;;;11.82;3.03;;;;;;;;;;5039025;28;93427;-75
2022/01/31 05:59:50;;;;;;;22.13;2.83;;;;;;;;;;5038253;28;93725;-75
2022/01/31 06:02:17;;;;;;;13.70;3.35;;;;;;;;;;5036102;27;93147;-75
2022/01/31 06:04:44;;;;;;;23.42;3.20;;;;;;;;;;5037371;28;94586;-78
2022/01/31 06:07:10;;;;;;;20.70;3.40;;;;;;;;;;5038907;28;93337;-75
2022/01/31 06:09:38;;;;;;;20.75;3.35;;;;;;;;;;5042004;28;92343;-79
2022/01/31 06:12:05;;;;;;;11.52;2.42;;;;;;;;;;5020966;28;93126;-74
2022/01/31 06:14:32;;;;;;;24.70;3.97;;;;;;;;;;5038851;28;92247;-75
2022/01/31 06:16:59;;;;;;;15.50;3.65;;;;;;;;;;5038720;28;93248;-76
2022/01/31 06:19:25;;;;;;;22.20;3.53;;;;;;;;;;5038530;28;93784;-75
2022/01/31 06:21:51;;;;;;;25.70;3.50;;;;;;;;;;5039200;28;91499;-75
2022/01/31 06:24:18;;;;;;;24.25;3.72;;;;;;;;;;5038526;28;93027;-74
2022/01/31 06:26:44;;;;;;;28.55;3.88;;;;;;;;;;5020358;28;95533;-75
2022/01/31 06:29:20;;;;;;;19.95;3.42;;;;;;;;;;5019612;28;94705;-75
2022/01/31 06:31:47;;;;;;;29.25;3.38;;;;;;;;;;5023525;28;98737;-75
2022/01/31 06:34:14;;;;;;;19.67;2.92;;;;;;;;;;5038383;28;92751;-75
2022/01/31 06:36:40;;;;;;;18.88;2.67;;;;;;;;;;5038529;28;92919;-75
2022/01/31 06:39:07;;;;;;;16.60;2.83;;;;;;;;;;5038222;28;93325;-76
2022/01/31 06:41:34;;;;;;;22.60;3.28;;;;;;;;;;5038292;28;92315;-76
2022/01/31 06:44:00;;;;;;;22.85;2.50;;;;;;;;;;5020755;28;93274;-75
2022/01/31 06:46:27;;;;;;;19.55;3.03;;;;;;;;;;5038649;28;92717;-75
2022/01/31 06:48:54;;;;;;;21.67;2.75;;;;;;;;;;5038300;28;92127;-76
2022/01/31 06:51:20;;;;;;;19.42;2.55;;;;;;;;;;5041048;28;94062;-76
2022/01/31 06:53:54;;;;;;;13.75;2.10;;;;;;;;;;5036657;28;94721;-76
2022/01/31 06:56:28;;;;;;;18.77;2.85;;;;;;;;;;5037862;28;95215;-75
2022/01/31 06:58:55;;;;;;;18.58;2.50;;;;;;;;;;5037607;28;93582;-76
2022/01/31 07:01:25;;;;;;;19.77;2.00;;;;;;;;;;5037940;28;92339;-76
2022/01/31 07:03:54;;;;;;;21.88;3.00;;;;;;;;;;5038052;28;93088;-76
2022/01/31 07:06:24;;;;;;;19.17;2.70;;;;;;;;;;5037723;28;93634;-76
2022/01/31 07:08:51;;;;;;;21.75;2.95;;;;;;;;;;5020453;28;92487;-76
2022/01/31 07:11:23;;;;;;;18.88;3.03;;;;;;;;;;5038372;28;92753;-76
2022/01/31 07:13:59;;;;;;;;;;;;;;;;;;5040266;28;93561;-75
2022/01/31 07:16:27;;;;;;;9.30;2.60;;;;;;;;;;5036799;28;122387;-75
2022/01/31 07:19:03;;;;;;;12.88;2.97;;;;;;;;;;5035947;28;96353;-74
2022/01/31 07:21:36;;;;;;;12.32;2.30;;;;;;;;;;5021240;28;92351;-72
2022/01/31 07:24:47;;;;;;;21.38;3.00;;;;;;;;;;5037746;28;93763;-75
2022/01/31 07:26:52;;;;;;;18.17;3.25;;;;;;;;;;5026628;28;93996;-74
2022/01/31 07:29:20;;;;;;;17.70;2.53;;;;;;;;;;5037659;28;93113;-73
2022/01/31 07:31:46;;;;;;;21.08;3.70;;;;;;;;;;5037372;28;94409;-73
2022/01/31 07:34:14;;;;;;;25.02;3.45;;;;;;;;;;5037084;28;93096;-74
2022/01/31 07:36:41;;;;;;;20.65;3.75;;;;;;;;;;5040996;28;91644;-74
2022/01/31 07:39:08;;;;;;;17.95;2.78;;;;;;;;;;5037377;28;93504;-71
2022/01/31 07:41:38;;;;;;;24.15;2.58;;;;;;;;;;5037440;28;92365;-70
2022/01/31 07:44:05;;;;;;;23.42;4.68;;;;;;;;;;5035224;28;94762;-69
2022/01/31 07:46:32;;;;;;;20.30;3.05;;;;;;;;;;5036861;28;93544;-72
2022/01/31 07:48:59;;;;;;;18.80;3.10;;;;;;;;;;5037135;28;92435;-73
2022/01/31 07:51:26;;;;;;;22.58;3.20;;;;;;;;;;5036810;28;93308;-73
2022/01/31 07:53:52;;;;;;;20.77;3.28;;;;;;;;;;5037105;28;93691;-71
2022/01/31 07:56:20;;;;;;;21.48;3.78;;;;;;;;;;5037089;28;92354;-72
2022/01/31 07:58:46;;;;;;;26.95;3.88;;;;;;;;;;5039393;28;93618;-72
2022/01/31 08:01:13;;;;;;;22.55;3.05;;;;;;;;;;5037658;28;91694;-73
2022/01/31 08:03:40;;;;;;;26.40;4.05;;;;;;;;;;5037640;28;92360;-72
2022/01/31 08:06:07;;;;;;;23.65;4.25;;;;;;;;;;5036774;28;93079;-71
2022/01/31 08:08:34;;;;;;;20.38;3.53;;;;;;;;;;5035378;28;94799;-71
2022/01/31 08:11:03;;;;;;;22.10;4.75;;;;;;;;;;5036969;28;97026;-71
2022/01/31 08:13:30;;;;;;;25.45;3.47;;;;;;;;;;5036633;28;93596;-72
2022/01/31 08:18:29;;;;;;;16.63;3.75;;;;;;;;;;5036783;28;92853;-73
2022/01/31 08:20:56;;;;;;;19.52;3.80;;;;;;;;;;5039672;28;93527;-72
2022/01/31 08:23:22;;;;;;;28.85;3.25;;;;;;;;;;5037117;28;92886;-72
2022/01/31 08:25:50;;;;;;;18.00;3.70;;;;;;;;;;5038473;27;93124;-73
2022/01/31 08:28:17;;;;;;;18.50;3.55;;;;;;;;;;5040632;28;92225;-73
2022/01/31 08:30:58;;;;;;;14.75;3.60;;;;;;;;;;5040576;28;93432;-73
2022/01/31 08:33:36;;;;;;;21.67;4.50;;;;;;;;;;5020193;28;98952;-73
2022/01/31 08:36:04;;;;;;;28.95;4.57;;;;;;;;;;5040136;28;92358;-73
2022/01/31 08:38:30;;;;;;;26.33;4.82;;;;;;;;;;5039730;28;93316;-73
2022/01/31 08:40:57;;;;;;;21.58;3.33;;;;;;;;;;5040241;28;94066;-74
2022/01/31 08:43:24;;;;;;;24.10;4.28;;;;;;;;;;5048682;27;92376;-75
2022/01/31 08:45:53;;;;;;;19.00;3.55;;;;;;;;;;5039903;28;93809;-75
2022/01/31 08:48:19;;;;;;;25.23;4.13;;;;;;;;;;5040144;28;93435;-74
2022/01/31 08:50:46;;;;;;;30.38;3.67;;;;;;;;;;5039933;28;93454;-75
2022/01/31 08:53:12;;;;;;;29.75;3.90;;;;;;;;;;5039701;28;93947;-75
2022/01/31 08:55:42;;;;;;;25.83;4.72;;;;;;;;;;5039904;28;92715;-75
2022/01/31 08:58:10;;;;;;;26.67;4.15;;;;;;;;;;5038548;28;94613;-75
2022/01/31 09:00:37;;;;;;;26.58;5.00;;;;;;;;;;5039840;28;93155;-74
2022/01/31 09:05:40;;;;;;;29.65;4.68;;;;;;;;;;5021521;28;94587;-75
2022/01/31 09:08:06;;;;;;;27.25;5.15;;;;;;;;;;5039855;28;92265;-74
2022/01/31 09:10:32;;;;;;;33.55;4.53;;;;;;;;;;5039515;28;93302;-76
2022/01/31 09:12:59;;;;;;;23.50;4.30;;;;;;;;;;5039329;28;93475;-75
2022/01/31 09:15:25;;;;;;;26.38;5.13;;;;;;;;;;5040246;28;91464;-75
2022/01/31 09:17:52;;;;;;;24.02;3.78;;;;;;;;;;5039019;28;92733;-76
2022/01/31 09:20:18;;;;;;;21.75;4.05;;;;;;;;;;5039322;28;93764;-74
2022/01/31 09:22:45;;;;;;;33.15;5.20;;;;;;;;;;5037936;28;94892;-75
2022/01/31 09:25:12;;;;;;;37.67;6.30;;;;;;;;;;5042831;28;94104;-75
2022/01/31 09:27:38;;;;;;;26.45;4.57;;;;;;;;;;5039406;28;92226;-74
2022/01/31 09:30:05;;;;;;;32.88;4.40;;;;;;;;;;5039578;28;93679;-74
2022/01/31 09:32:32;;;;;;;19.95;4.20;;;;;;;;;;5038860;28;93965;-75
2022/01/31 09:34:58;;;;;;;20.33;3.50;;;;;;;;;;5039019;28;92370;-75
2022/01/31 09:37:25;;;;;;;33.50;5.78;;;;;;;;;;5038464;27;93527;-75
2022/01/31 09:39:51;;;;;;;26.20;4.30;;;;;;;;;;5039426;28;93838;-75
2022/01/31 09:42:37;;;;;;;23.98;3.78;;;;;;;;;;5039543;28;92188;-74
2022/01/31 09:45:11;;;;;;;32.10;5.00;;;;;;;;;;5039105;28;92762;-75
2022/01/31 09:50:25;;;;;;;30.27;5.40;;;;;;;;;;5039181;28;95632;-74
2022/01/31 09:52:51;;;;;;;37.00;5.75;;;;;;;;;;5038605;28;93172;-75
2022/01/31 09:55:20;;;;;;;34.88;5.72;;;;;;;;;;5038986;28;92133;-75
2022/01/31 09:57:46;;;;;;;47.13;6.65;;;;;;;;;;5050459;27;93499;-75
2022/01/31 10:00:13;;;;;;;60.40;7.60;;;;;;;;;;5058977;27;94009;-76
2022/01/31 10:02:39;;;;;;;34.25;5.70;;;;;;;;;;5059045;27;92264;-73
2022/01/31 10:05:07;;;;;;;32.40;5.22;;;;;;;;;;5059637;27;93263;-75
2022/01/31 10:07:43;;;;;;;39.42;5.35;;;;;;;;;;5058959;27;93642;-74
2022/01/31 10:10:18;;;;;;;39.92;6.40;;;;;;;;;;5061602;27;92843;-74
2022/01/31 10:18:06;;;;;;;31.25;5.63;;;;;;;;;;5058906;27;93470;-74
2022/01/31 10:20:34;;;;;;;25.67;5.07;;;;;;;;;;5058208;27;93224;-75
2022/01/31 10:23:07;;;;;;;48.97;6.32;;;;;;;;;;5058794;27;92375;-70
2022/01/31 10:25:33;;;;;;;42.85;5.78;;;;;;;;;;5058954;27;93412;-75
2022/01/31 10:28:19;;;;;;;29.98;5.22;;;;;;;;;;5058758;27;92904;-75
2022/01/31 10:30:46;;;;;;;40.85;7.32;;;;;;;;;;5059507;27;91460;-73
2022/01/31 10:33:14;;;;;;;40.17;6.43;;;;;;;;;;5061552;27;92610;-74
2022/01/31 10:35:41;;;;;;;42.08;5.72;;;;;;;;;;5040757;27;92363;-74
2022/01/31 10:38:11;;;;;;;29.95;4.82;;;;;;;;;;5057038;27;94900;-70
2022/01/31 10:56:53;;;;;;;34.63;5.90;;;;;;;;;;5061593;27;93527;-73
2022/01/31 10:59:22;;;;;;;44.47;5.57;;;;;;;;;;5058262;27;92657;-72
2022/01/31 11:01:50;;;;;;;40.05;5.55;;;;;;;;;;5058221;27;93056;-73
2022/01/31 11:04:32;;;;;;;27.38;4.35;;;;;;;;;;5056000;27;94779;-74
2022/01/31 11:07:10;;;;;;;36.07;5.33;;;;;;;;;;5058203;27;96196;-73
2022/01/31 11:09:37;;;;;;;24.27;4.53;;;;;;;;;;5057969;27;93173;-73
2022/01/31 11:12:04;;;;;;;34.83;5.10;;;;;;;;;;5043951;27;92372;-73
2022/01/31 11:14:36;;;;;;;25.88;5.00;;;;;;;;;;5037870;28;93399;-74
2022/01/31 11:17:12;;;;;;;33.30;4.80;;;;;;;;;;5040241;28;93248;-74
2022/01/31 11:19:40;;;;;;;37.40;5.22;;;;;;;;;;5037719;28;93504;-74
2022/01/31 11:22:10;;;;;;;30.98;5.32;;;;;;;;;;5037804;28;93282;-75
2022/01/31 11:24:58;;;;;;;29.42;5.65;;;;;;;;;;5037460;28;92304;-74
2022/01/31 11:27:27;;;;;;;31.87;5.90;;;;;;;;;;5019742;28;93840;-75
2022/01/31 11:29:55;;;;;;;27.13;4.70;;;;;;;;;;5035577;28;96340;-74
2022/01/31 11:32:22;;;;;;;22.38;4.30;;;;;;;;;;5037646;28;92219;-73
2022/01/31 11:34:48;;;;;;;37.03;5.18;;;;;;;;;;5037236;28;93568;-74
2022/01/31 11:37:16;;;;;;;32.38;4.80;;;;;;;;;;5037012;28;93667;-73
2022/01/31 11:39:44;;;;;;;40.28;4.90;;;;;;;;;;5040298;28;92388;-75
2022/01/31 11:42:10;;;;;;;33.20;6.35;;;;;;;;;;5037041;28;93547;-74
2022/01/31 11:44:45;;;;;;;27.83;6.22;;;;;;;;;;5037399;28;92621;-75
2022/01/31 11:47:11;;;;;;;31.55;5.35;;;;;;;;;;5020426;28;92748;-74
2022/01/31 11:49:48;;;;;;;22.50;4.10;;;;;;;;;;5037051;28;93175;-70
2022/01/31 11:52:15;;;;;;;32.38;5.95;;;;;;;;;;5036434;28;92344;-76
2022/01/31 11:54:45;;;;;;;28.08;5.38;;;;;;;;;;5035670;28;94636;-74
2022/01/31 11:57:31;;;;;;;28.70;5.10;;;;;;;;;;5036802;28;93557;-75
2022/01/31 12:00:04;;;;;;;35.00;5.40;;;;;;;;;;5036539;28;92420;-77
2022/01/31 12:02:39;;;;;;;;;;;;;;;;;;5039830;28;93245;-76
2022/01/31 12:05:07;;;;;;;39.45;5.55;;;;;;;;;;5036149;28;116767;-74
2022/01/31 12:07:39;;;;;;;30.75;4.97;;;;;;;;;;5037125;28;92798;-77
2022/01/31 12:10:07;;;;;;;31.48;5.00;;;;;;;;;;5036539;28;93615;-75
2022/01/31 12:13:00;;;;;;;41.92;7.07;;;;;;;;;;5037611;28;91631;-75
2022/01/31 12:15:45;;;;;;;44.60;7.22;;;;;;;;;;5018784;28;92786;-75
2022/01/31 12:18:29;;;;;;;35.45;6.38;;;;;;;;;;5036836;28;93199;-75
2022/01/31 12:23:53;;;;;;;42.70;6.80;;;;;;;;;;5036232;28;96127;-75
2022/01/31 12:26:32;;;;;;;32.90;6.63;;;;;;;;;;5021849;28;93670;-76
2022/01/31 12:29:01;;;;;;;54.40;7.55;;;;;;;;;;5036642;28;93429;-76
2022/01/31 12:31:36;;;;;;;39.17;6.25;;;;;;;;;;5036795;28;93477;-76
2022/01/31 12:34:03;;;;;;;37.85;5.95;;;;;;;;;;5035914;28;92286;-75
2022/01/31 12:36:36;;;;;;;38.92;7.15;;;;;;;;;;5036444;28;92859;-75
2022/01/31 12:39:21;;;;;;;47.42;7.05;;;;;;;;;;5037047;28;93263;-75
2022/01/31 12:41:47;;;;;;;43.00;6.80;;;;;;;;;;5036462;28;92242;-76
2022/01/31 12:44:29;;;;;;;49.97;6.88;;;;;;;;;;5036972;28;92962;-74
2022/01/31 12:47:14;;;;;;;39.83;5.93;;;;;;;;;;5034598;28;96185;-75
2022/01/31 12:49:45;;;;;;;47.08;7.18;;;;;;;;;;5039512;28;92305;-75
2022/01/31 12:52:11;;;;;;;38.22;6.50;;;;;;;;;;5036059;28;94001;-75
2022/01/31 12:54:39;;;;;;;40.72;5.68;;;;;;;;;;5036413;28;92442;-75
2022/01/31 12:57:10;;;;;;;46.67;7.40;;;;;;;;;;5035953;28;93421;-75
2022/01/31 12:59:39;;;;;;;39.33;6.47;;;;;;;;;;5036089;28;94280;-74
2022/01/31 13:02:06;;;;;;;62.65;7.72;;;;;;;;;;5036418;28;92177;-76
2022/01/31 13:04:33;;;;;;;37.72;6.20;;;;;;;;;;5036937;28;93365;-78
2022/01/31 13:07:01;;;;;;;53.25;7.30;;;;;;;;;;5033682;28;93094;-75
2022/01/31 13:09:47;;;;;;;44.20;7.00;;;;;;;;;;5008408;28;93433;-74
2022/01/31 13:12:18;;;;;;;36.17;6.35;;;;;;;;;;5018285;28;94663;-76
2022/01/31 13:14:50;;;;;;;39.83;6.70;;;;;;;;;;5019318;28;92375;-74
2022/01/31 13:17:18;;;;;;;38.42;6.15;;;;;;;;;;5019078;28;93535;-70
2022/01/31 13:19:49;;;;;;;38.85;5.82;;;;;;;;;;5018982;28;93800;-75
2022/01/31 13:22:22;;;;;;;37.83;5.90;;;;;;;;;;5019171;28;92691;-74
2022/01/31 13:24:49;;;;;;;40.20;6.57;;;;;;;;;;5019190;28;93223;-74
2022/01/31 13:27:19;;;;;;;42.65;7.18;;;;;;;;;;5019000;28;94248;-74
2022/01/31 13:30:07;;;;;;;39.67;6.88;;;;;;;;;;5019814;28;91513;-75
2022/01/31 13:32:35;;;;;;;41.08;7.18;;;;;;;;;;5022220;28;92253;-76
2022/01/31 13:35:05;;;;;;;;;;;;;;;;;;5019757;28;92296;-74
2022/01/31 13:37:43;;;;;;;52.50;7.25;;;;;;;;;;5016764;28;121843;-73
2022/01/31 13:40:12;;;;;;;34.60;6.15;;;;;;;;;;5018928;28;93712;-73
2022/01/31 13:42:41;;;;;;;38.25;5.45;;;;;;;;;;5019175;28;92307;-74
2022/01/31 13:45:12;;;;;;;50.58;6.97;;;;;;;;;;5018881;28;92978;-74
2022/01/31 13:47:48;;;;;;;42.35;7.38;;;;;;;;;;5018658;28;92928;-74
2022/01/31 13:50:19;;;;;;;55.80;7.45;;;;;;;;;;5019128;28;92256;-74
2022/01/31 13:53:09;;;;;;;47.90;6.03;;;;;;;;;;5018664;28;93288;-74
2022/01/31 13:55:50;;;;;;;41.42;6.28;;;;;;;;;;5011684;28;91487;-72
2022/01/31 13:58:25;;;;;;;41.25;6.13;;;;;;;;;;5018480;28;92468;-74
2022/01/31 14:00:51;;;;;;;37.33;5.18;;;;;;;;;;5018691;28;93756;-75
2022/01/31 14:03:21;;;;;;;29.20;5.95;;;;;;;;;;5017261;28;94647;-75
2022/01/31 14:05:52;;;;;;;41.85;5.93;;;;;;;;;;5018379;28;95880;-73
2022/01/31 14:08:23;;;;;;;45.20;7.13;;;;;;;;;;5018557;28;93259;-75
2022/01/31 14:10:50;;;;;;;46.42;6.82;;;;;;;;;;5018653;28;92273;-74
2022/01/31 14:13:16;;;;;;;39.50;4.85;;;;;;;;;;5018456;28;94908;-74
2022/01/31 14:15:46;;;;;;;28.23;4.32;;;;;;;;;;5018587;28;93492;-74
2022/01/31 14:18:14;;;;;;;40.17;5.97;;;;;;;;;;5020988;28;92303;-74
2022/01/31 14:20:40;;;;;;;39.78;5.07;;;;;;;;;;5018994;28;93005;-74
2022/01/31 14:23:10;;;;;;;42.70;5.97;;;;;;;;;;5018092;28;92750;-75
2022/01/31 14:25:41;;;;;;;32.30;4.80;;;;;;;;;;5018533;28;92811;-75
2022/01/31 14:28:10;;;;;;;38.05;5.35;;;;;;;;;;5016571;28;96251;-74
2022/01/31 14:30:50;;;;;;;29.33;4.82;;;;;;;;;;5018360;28;93033;-74
2022/01/31 14:33:21;;;;;;;39.40;6.47;;;;;;;;;;5018073;28;93278;-74
2022/01/31 14:36:00;;;;;;;35.45;5.15;;;;;;;;;;5018144;28;93692;-74
2022/01/31 14:38:33;;;;;;;36.58;5.95;;;;;;;;;;5018134;28;92384;-74
2022/01/31 14:49:05;;;;;;;33.55;5.60;;;;;;;;;;5017942;28;93935;-77
2022/01/31 14:51:32;;;;;;;33.63;5.35;;;;;;;;;;5017455;28;92400;-76
2022/01/31 14:54:03;;;;;;;34.15;5.22;;;;;;;;;;5016172;28;94664;-78
2022/01/31 14:56:31;;;;;;;43.92;4.93;;;;;;;;;;5039558;27;93647;-77
2022/01/31 14:59:18;;;;;;;22.35;3.95;;;;;;;;;;5058226;27;92299;-75
2022/01/31 15:01:44;;;;;;;28.40;4.45;;;;;;;;;;5058411;27;93102;-73
2022/01/31 15:04:30;;;;;;;26.70;3.75;;;;;;;;;;5061018;27;92527;-73
2022/01/31 15:06:57;;;;;;;22.55;3.70;;;;;;;;;;5058229;27;93654;-74
2022/01/31 15:09:28;;;;;;;31.80;4.53;;;;;;;;;;5057958;27;94065;-74
2022/01/31 15:11:55;;;;;;;33.55;4.10;;;;;;;;;;5058418;27;91623;-75
2022/01/31 15:14:22;;;;;;;26.75;4.68;;;;;;;;;;5058224;27;92610;-75
2022/01/31 15:16:48;;;;;;;34.90;4.25;;;;;;;;;;5057468;27;92648;-75
2022/01/31 15:19:17;;;;;;;32.47;5.28;;;;;;;;;;5056554;27;94814;-73
2022/01/31 15:21:49;;;;;;;29.45;5.13;;;;;;;;;;5057964;27;95844;-74
2022/01/31 15:24:16;;;;;;;38.63;5.45;;;;;;;;;;5057679;27;94527;-74
2022/01/31 15:26:42;;;;;;;31.10;6.10;;;;;;;;;;5060848;27;92416;-75
2022/01/31 15:29:09;;;;;;;21.63;4.50;;;;;;;;;;5057438;27;93529;-74